sensor_id;sensor_type;location;lat;lon;timestamp;temperature;humidity
54461;DHT22;69977;49.414;11.010;2023-08-21T00:02:42;22.20;99.90
54461;DHT22;69977;49.414;11.010;2023-08-21T00:05:07;22.20;99.90
54461;DHT22;69977;49.414;11.010;2023-08-21T00:07:34;22.10;99.90
54461;DHT22;69977;49.414;11.010;2023-08-21T00:10:00;22.10;99.90
54461;DHT22;69977;49.414;11.010;2023-08-21T00:12:26;22.00;99.90
54461;DHT22;69977;49.414;11.010;2023-08-21T00:14:52;22.10;99.90
54461;DHT22;69977;49.414;11.010;2023-08-21T00:17:17;22.10;99.90
54461;DHT22;69977;49.414;11.010;2023-08-21T00:19:43;22.10;99.90
54461;DHT22;69977;49.414;11.010;2023-08-21T00:22:09;22.10;99.90
54461;DHT22;69977;49.414;11.010;2023-08-21T00:24:35;22.10;99.90
54461;DHT22;69977;49.414;11.010;2023-08-21T00:27:00;22.00;99.90
54461;DHT22;69977;49.414;11.010;2023-08-21T00:29:28;22.10;99.90
54461;DHT22;69977;49.414;11.010;2023-08-21T00:31:54;22.20;99.90
54461;DHT22;69977;49.414;11.010;2023-08-21T00:34:21;22.30;99.90
54461;DHT22;69977;49.414;11.010;2023-08-21T00:36:47;22.30;99.90
54461;DHT22;69977;49.414;11.010;2023-08-21T00:39:13;22.30;99.90
54461;DHT22;69977;49.414;11.010;2023-08-21T00:41:39;22.40;99.90
54461;DHT22;69977;49.414;11.010;2023-08-21T00:44:04;22.50;99.90
54461;DHT22;69977;49.414;11.010;2023-08-21T00:46:31;22.40;99.90
54461;DHT22;69977;49.414;11.010;2023-08-21T00:48:57;22.30;99.90
54461;DHT22;69977;49.414;11.010;2023-08-21T00:51:23;22.40;99.90
54461;DHT22;69977;49.414;11.010;2023-08-21T00:53:49;22.50;99.90
54461;DHT22;69977;49.414;11.010;2023-08-21T00:56:15;22.70;99.90
54461;DHT22;69977;49.414;11.010;2023-08-21T00:58:42;22.60;99.90
54461;DHT22;69977;49.414;11.010;2023-08-21T01:01:08;22.50;99.90
54461;DHT22;69977;49.414;11.010;2023-08-21T01:03:34;22.50;99.90
54461;DHT22;69977;49.414;11.010;2023-08-21T01:06:01;22.60;99.90
54461;DHT22;69977;49.414;11.010;2023-08-21T01:08:35;22.60;99.90
54461;DHT22;69977;49.414;11.010;2023-08-21T01:11:32;23.10;99.90
54461;DHT22;69977;49.414;11.010;2023-08-21T01:16:34;23.50;99.90
54461;DHT22;69977;49.414;11.010;2023-08-21T01:19:01;23.50;99.90
54461;DHT22;69977;49.414;11.010;2023-08-21T01:21:29;23.50;99.90
54461;DHT22;69977;49.414;11.010;2023-08-21T01:23:55;23.50;99.90
54461;DHT22;69977;49.414;11.010;2023-08-21T01:26:20;23.50;99.90
54461;DHT22;69977;49.414;11.010;2023-08-21T01:28:46;23.40;99.90
54461;DHT22;69977;49.414;11.010;2023-08-21T01:31:28;23.30;99.90
54461;DHT22;69977;49.414;11.010;2023-08-21T01:33:59;23.30;99.90
54461;DHT22;69977;49.414;11.010;2023-08-21T01:36:28;23.10;99.90
54461;DHT22;69977;49.414;11.010;2023-08-21T01:38:54;23.00;99.90
54461;DHT22;69977;49.414;11.010;2023-08-21T01:41:23;23.00;99.90
54461;DHT22;69977;49.414;11.010;2023-08-21T01:43:49;23.00;99.90
54461;DHT22;69977;49.414;11.010;2023-08-21T01:46:15;23.10;99.90
54461;DHT22;69977;49.414;11.010;2023-08-21T01:48:41;23.10;99.90
54461;DHT22;69977;49.414;11.010;2023-08-21T01:51:07;23.10;99.90
54461;DHT22;69977;49.414;11.010;2023-08-21T01:53:33;22.90;99.90
54461;DHT22;69977;49.414;11.010;2023-08-21T01:56:00;22.90;99.90
54461;DHT22;69977;49.414;11.010;2023-08-21T01:58:26;23.10;99.90
54461;DHT22;69977;49.414;11.010;2023-08-21T02:00:52;22.90;99.90
54461;DHT22;69977;49.414;11.010;2023-08-21T02:03:17;22.70;99.90
54461;DHT22;69977;49.414;11.010;2023-08-21T02:05:43;22.60;99.90
54461;DHT22;69977;49.414;11.010;2023-08-21T02:08:12;22.70;99.90
54461;DHT22;69977;49.414;11.010;2023-08-21T02:10:48;22.70;99.90
54461;DHT22;69977;49.414;11.010;2023-08-21T02:13:14;22.60;99.90
54461;DHT22;69977;49.414;11.010;2023-08-21T02:15:40;22.60;99.90
54461;DHT22;69977;49.414;11.010;2023-08-21T02:18:05;22.50;99.90
54461;DHT22;69977;49.414;11.010;2023-08-21T02:20:31;22.50;99.90
54461;DHT22;69977;49.414;11.010;2023-08-21T02:22:57;22.50;99.90
54461;DHT22;69977;49.414;11.010;2023-08-21T02:25:23;22.50;99.90
54461;DHT22;69977;49.414;11.010;2023-08-21T02:27:49;22.50;99.90
54461;DHT22;69977;49.414;11.010;2023-08-21T02:30:14;22.70;99.90
54461;DHT22;69977;49.414;11.010;2023-08-21T02:32:40;22.80;99.90
54461;DHT22;69977;49.414;11.010;2023-08-21T02:35:07;22.50;99.90
54461;DHT22;69977;49.414;11.010;2023-08-21T02:37:34;22.40;99.90
54461;DHT22;69977;49.414;11.010;2023-08-21T02:40:00;22.30;99.90
54461;DHT22;69977;49.414;11.010;2023-08-21T02:42:26;22.30;99.90
54461;DHT22;69977;49.414;11.010;2023-08-21T02:44:52;22.40;99.90
54461;DHT22;69977;49.414;11.010;2023-08-21T02:47:17;22.30;99.90
54461;DHT22;69977;49.414;11.010;2023-08-21T02:49:43;22.30;99.90
54461;DHT22;69977;49.414;11.010;2023-08-21T02:52:11;22.10;99.90
54461;DHT22;69977;49.414;11.010;2023-08-21T02:54:37;22.10;99.90
54461;DHT22;69977;49.414;11.010;2023-08-21T02:57:03;22.00;99.90
54461;DHT22;69977;49.414;11.010;2023-08-21T02:59:29;22.00;99.90
54461;DHT22;69977;49.414;11.010;2023-08-21T03:01:55;22.20;99.90
54461;DHT22;69977;49.414;11.010;2023-08-21T03:04:20;22.20;99.90
54461;DHT22;69977;49.414;11.010;2023-08-21T03:06:46;22.10;99.90
54461;DHT22;69977;49.414;11.010;2023-08-21T03:09:12;22.00;99.90
54461;DHT22;69977;49.414;11.010;2023-08-21T03:11:38;21.90;99.90
54461;DHT22;69977;49.414;11.010;2023-08-21T03:14:04;21.80;99.90
54461;DHT22;69977;49.414;11.010;2023-08-21T03:16:29;21.80;99.90
54461;DHT22;69977;49.414;11.010;2023-08-21T03:18:58;21.70;99.90
54461;DHT22;69977;49.414;11.010;2023-08-21T03:21:26;21.80;99.90
54461;DHT22;69977;49.414;11.010;2023-08-21T03:23:58;21.90;99.90
54461;DHT22;69977;49.414;11.010;2023-08-21T03:26:25;22.10;99.90
54461;DHT22;69977;49.414;11.010;2023-08-21T03:28:52;21.90;99.90
54461;DHT22;69977;49.414;11.010;2023-08-21T03:31:18;21.80;99.90
54461;DHT22;69977;49.414;11.010;2023-08-21T03:33:44;21.60;99.90
54461;DHT22;69977;49.414;11.010;2023-08-21T03:36:10;21.60;99.90
54461;DHT22;69977;49.414;11.010;2023-08-21T03:38:36;21.60;99.90
54461;DHT22;69977;49.414;11.010;2023-08-21T03:41:02;21.60;99.90
54461;DHT22;69977;49.414;11.010;2023-08-21T03:43:28;21.80;99.90
54461;DHT22;69977;49.414;11.010;2023-08-21T03:45:54;21.70;99.90
54461;DHT22;69977;49.414;11.010;2023-08-21T03:48:20;21.60;99.90
54461;DHT22;69977;49.414;11.010;2023-08-21T03:50:45;21.60;99.90
54461;DHT22;69977;49.414;11.010;2023-08-21T03:53:11;21.50;99.90
54461;DHT22;69977;49.414;11.010;2023-08-21T03:55:37;21.50;99.90
54461;DHT22;69977;49.414;11.010;2023-08-21T03:58:03;21.40;99.90
54461;DHT22;69977;49.414;11.010;2023-08-21T04:00:29;21.40;99.90
54461;DHT22;69977;49.414;11.010;2023-08-21T04:02:54;21.50;99.90
54461;DHT22;69977;49.414;11.010;2023-08-21T04:05:21;21.50;99.90
54461;DHT22;69977;49.414;11.010;2023-08-21T04:07:46;21.50;99.90
54461;DHT22;69977;49.414;11.010;2023-08-21T04:10:12;21.60;99.90
54461;DHT22;69977;49.414;11.010;2023-08-21T04:12:38;21.40;99.90
54461;DHT22;69977;49.414;11.010;2023-08-21T04:15:04;21.40;99.90
54461;DHT22;69977;49.414;11.010;2023-08-21T04:17:31;21.40;99.90
54461;DHT22;69977;49.414;11.010;2023-08-21T04:19:58;21.40;99.90
54461;DHT22;69977;49.414;11.010;2023-08-21T04:22:24;21.40;99.90
54461;DHT22;69977;49.414;11.010;2023-08-21T04:24:50;21.40;99.90
54461;DHT22;69977;49.414;11.010;2023-08-21T04:27:16;21.40;99.90
54461;DHT22;69977;49.414;11.010;2023-08-21T04:29:42;21.40;99.90
54461;DHT22;69977;49.414;11.010;2023-08-21T04:32:07;21.50;99.90
54461;DHT22;69977;49.414;11.010;2023-08-21T04:34:33;21.70;99.90
54461;DHT22;69977;49.414;11.010;2023-08-21T04:36:59;21.80;99.90
54461;DHT22;69977;49.414;11.010;2023-08-21T04:39:26;21.90;99.90
54461;DHT22;69977;49.414;11.010;2023-08-21T04:41:52;21.90;99.90
54461;DHT22;69977;49.414;11.010;2023-08-21T04:44:19;22.00;99.90
54461;DHT22;69977;49.414;11.010;2023-08-21T04:46:48;21.80;99.90
54461;DHT22;69977;49.414;11.010;2023-08-21T04:49:15;21.80;99.90
54461;DHT22;69977;49.414;11.010;2023-08-21T04:51:41;21.70;99.90
54461;DHT22;69977;49.414;11.010;2023-08-21T04:54:07;21.90;99.90
54461;DHT22;69977;49.414;11.010;2023-08-21T04:56:33;22.00;99.90
54461;DHT22;69977;49.414;11.010;2023-08-21T04:58:58;22.10;99.90
54461;DHT22;69977;49.414;11.010;2023-08-21T05:01:26;22.20;99.90
54461;DHT22;69977;49.414;11.010;2023-08-21T05:03:52;22.00;99.90
54461;DHT22;69977;49.414;11.010;2023-08-21T05:06:19;22.00;99.90
54461;DHT22;69977;49.414;11.010;2023-08-21T05:08:45;22.00;99.90
54461;DHT22;69977;49.414;11.010;2023-08-21T05:11:11;21.90;99.90
54461;DHT22;69977;49.414;11.010;2023-08-21T05:13:39;21.90;99.90
54461;DHT22;69977;49.414;11.010;2023-08-21T05:16:08;22.10;99.90
54461;DHT22;69977;49.414;11.010;2023-08-21T05:18:36;22.20;99.90
54461;DHT22;69977;49.414;11.010;2023-08-21T05:21:02;22.30;99.90
54461;DHT22;69977;49.414;11.010;2023-08-21T05:23:28;22.20;99.90
54461;DHT22;69977;49.414;11.010;2023-08-21T05:25:59;22.10;99.90
54461;DHT22;69977;49.414;11.010;2023-08-21T05:28:25;22.20;99.90
54461;DHT22;69977;49.414;11.010;2023-08-21T05:30:51;22.40;99.90
54461;DHT22;69977;49.414;11.010;2023-08-21T05:33:18;22.50;99.90
54461;DHT22;69977;49.414;11.010;2023-08-21T05:35:47;22.50;99.90
54461;DHT22;69977;49.414;11.010;2023-08-21T05:38:13;22.30;99.90
54461;DHT22;69977;49.414;11.010;2023-08-21T05:40:40;22.30;99.90
54461;DHT22;69977;49.414;11.010;2023-08-21T05:43:08;22.30;99.90
54461;DHT22;69977;49.414;11.010;2023-08-21T05:45:35;22.40;99.90
54461;DHT22;69977;49.414;11.010;2023-08-21T05:48:01;22.50;99.90
54461;DHT22;69977;49.414;11.010;2023-08-21T05:50:27;22.70;99.90
54461;DHT22;69977;49.414;11.010;2023-08-21T05:52:54;22.80;99.90
54461;DHT22;69977;49.414;11.010;2023-08-21T05:55:20;22.70;99.90
54461;DHT22;69977;49.414;11.010;2023-08-21T05:57:46;22.80;99.90
54461;DHT22;69977;49.414;11.010;2023-08-21T06:00:13;22.80;99.90
54461;DHT22;69977;49.414;11.010;2023-08-21T06:02:42;22.90;99.90
54461;DHT22;69977;49.414;11.010;2023-08-21T06:05:13;23.00;99.90
54461;DHT22;69977;49.414;11.010;2023-08-21T06:07:39;23.10;99.90
54461;DHT22;69977;49.414;11.010;2023-08-21T06:10:09;23.10;99.90
54461;DHT22;69977;49.414;11.010;2023-08-21T06:12:41;23.30;99.90
54461;DHT22;69977;49.414;11.010;2023-08-21T06:15:08;23.30;99.90
54461;DHT22;69977;49.414;11.010;2023-08-21T06:17:38;23.40;99.90
54461;DHT22;69977;49.414;11.010;2023-08-21T06:20:05;23.40;99.90
54461;DHT22;69977;49.414;11.010;2023-08-21T06:22:32;23.30;99.90
54461;DHT22;69977;49.414;11.010;2023-08-21T06:24:58;23.40;99.90
54461;DHT22;69977;49.414;11.010;2023-08-21T06:27:23;23.50;99.90
54461;DHT22;69977;49.414;11.010;2023-08-21T06:29:49;23.60;99.90
54461;DHT22;69977;49.414;11.010;2023-08-21T06:32:15;23.50;99.90
54461;DHT22;69977;49.414;11.010;2023-08-21T06:34:43;23.60;99.90
54461;DHT22;69977;49.414;11.010;2023-08-21T06:37:08;23.60;99.90
54461;DHT22;69977;49.414;11.010;2023-08-21T06:39:35;23.70;99.90
54461;DHT22;69977;49.414;11.010;2023-08-21T06:42:01;23.70;99.90
54461;DHT22;69977;49.414;11.010;2023-08-21T06:44:35;23.50;99.90
54461;DHT22;69977;49.414;11.010;2023-08-21T06:47:01;23.60;99.90
54461;DHT22;69977;49.414;11.010;2023-08-21T06:49:27;23.60;99.90
54461;DHT22;69977;49.414;11.010;2023-08-21T06:51:53;23.60;99.90
54461;DHT22;69977;49.414;11.010;2023-08-21T06:54:19;23.70;99.90
54461;DHT22;69977;49.414;11.010;2023-08-21T06:56:45;23.70;99.90
54461;DHT22;69977;49.414;11.010;2023-08-21T06:59:10;23.70;99.90
54461;DHT22;69977;49.414;11.010;2023-08-21T07:01:36;23.80;99.90
54461;DHT22;69977;49.414;11.010;2023-08-21T07:04:02;23.90;99.90
54461;DHT22;69977;49.414;11.010;2023-08-21T07:06:28;24.00;99.90
54461;DHT22;69977;49.414;11.010;2023-08-21T07:08:55;24.00;99.90
54461;DHT22;69977;49.414;11.010;2023-08-21T07:11:20;24.10;99.90
54461;DHT22;69977;49.414;11.010;2023-08-21T07:13:46;24.10;99.90
54461;DHT22;69977;49.414;11.010;2023-08-21T07:16:12;24.10;99.90
54461;DHT22;69977;49.414;11.010;2023-08-21T07:18:38;24.20;99.90
54461;DHT22;69977;49.414;11.010;2023-08-21T07:21:04;24.30;99.90
54461;DHT22;69977;49.414;11.010;2023-08-21T07:23:33;24.20;99.90
54461;DHT22;69977;49.414;11.010;2023-08-21T07:26:00;24.30;99.90
54461;DHT22;69977;49.414;11.010;2023-08-21T07:28:26;24.30;99.90
54461;DHT22;69977;49.414;11.010;2023-08-21T07:30:58;24.30;99.90
54461;DHT22;69977;49.414;11.010;2023-08-21T07:33:25;24.30;99.90
54461;DHT22;69977;49.414;11.010;2023-08-21T07:38:24;24.40;99.90
54461;DHT22;69977;49.414;11.010;2023-08-21T07:40:50;24.40;99.90
54461;DHT22;69977;49.414;11.010;2023-08-21T07:43:15;24.40;99.90
54461;DHT22;69977;49.414;11.010;2023-08-21T07:45:41;24.50;99.90
54461;DHT22;69977;49.414;11.010;2023-08-21T07:48:07;24.50;99.90
54461;DHT22;69977;49.414;11.010;2023-08-21T07:50:33;24.50;99.90
54461;DHT22;69977;49.414;11.010;2023-08-21T07:52:59;24.50;99.90
54461;DHT22;69977;49.414;11.010;2023-08-21T07:55:24;24.50;99.90
54461;DHT22;69977;49.414;11.010;2023-08-21T07:57:50;24.60;99.90
54461;DHT22;69977;49.414;11.010;2023-08-21T08:00:16;24.70;99.90
54461;DHT22;69977;49.414;11.010;2023-08-21T08:02:42;24.90;99.90
54461;DHT22;69977;49.414;11.010;2023-08-21T08:05:08;24.90;99.90
54461;DHT22;69977;49.414;11.010;2023-08-21T08:07:34;24.90;99.90
54461;DHT22;69977;49.414;11.010;2023-08-21T08:10:00;24.90;99.90
54461;DHT22;69977;49.414;11.010;2023-08-21T08:12:26;25.00;99.90
54461;DHT22;69977;49.414;11.010;2023-08-21T08:14:52;25.00;99.90
54461;DHT22;69977;49.414;11.010;2023-08-21T08:17:18;25.00;99.90
54461;DHT22;69977;49.414;11.010;2023-08-21T08:19:44;25.10;99.90
54461;DHT22;69977;49.414;11.010;2023-08-21T08:22:09;25.20;99.90
54461;DHT22;69977;49.414;11.010;2023-08-21T08:24:35;25.20;99.90
54461;DHT22;69977;49.414;11.010;2023-08-21T08:27:01;25.30;99.90
54461;DHT22;69977;49.414;11.010;2023-08-21T08:29:27;25.30;99.90
54461;DHT22;69977;49.414;11.010;2023-08-21T08:31:53;25.30;99.90
54461;DHT22;69977;49.414;11.010;2023-08-21T08:34:19;25.40;99.90
54461;DHT22;69977;49.414;11.010;2023-08-21T08:36:46;25.40;99.90
54461;DHT22;69977;49.414;11.010;2023-08-21T08:39:12;25.50;99.90
54461;DHT22;69977;49.414;11.010;2023-08-21T08:41:50;25.50;99.90
54461;DHT22;69977;49.414;11.010;2023-08-21T08:44:18;25.60;99.90
54461;DHT22;69977;49.414;11.010;2023-08-21T08:46:45;25.60;99.90
54461;DHT22;69977;49.414;11.010;2023-08-21T08:49:11;25.70;99.90
54461;DHT22;69977;49.414;11.010;2023-08-21T08:51:38;25.80;99.90
54461;DHT22;69977;49.414;11.010;2023-08-21T08:54:05;25.80;99.90
54461;DHT22;69977;49.414;11.010;2023-08-21T08:56:32;25.90;99.90
54461;DHT22;69977;49.414;11.010;2023-08-21T08:58:57;25.90;99.90
54461;DHT22;69977;49.414;11.010;2023-08-21T09:01:23;25.90;99.90
54461;DHT22;69977;49.414;11.010;2023-08-21T09:03:49;25.90;99.90
54461;DHT22;69977;49.414;11.010;2023-08-21T09:06:15;26.10;99.90
54461;DHT22;69977;49.414;11.010;2023-08-21T09:08:54;26.10;99.90
54461;DHT22;69977;49.414;11.010;2023-08-21T09:11:20;26.00;99.90
54461;DHT22;69977;49.414;11.010;2023-08-21T09:13:47;26.20;99.90
54461;DHT22;69977;49.414;11.010;2023-08-21T09:16:14;26.30;99.90
54461;DHT22;69977;49.414;11.010;2023-08-21T09:19:08;26.40;99.90
54461;DHT22;69977;49.414;11.010;2023-08-21T09:21:34;26.50;99.90
54461;DHT22;69977;49.414;11.010;2023-08-21T09:24:01;26.60;99.90
54461;DHT22;69977;49.414;11.010;2023-08-21T09:26:31;26.50;99.90
54461;DHT22;69977;49.414;11.010;2023-08-21T09:29:03;26.60;99.90
54461;DHT22;69977;49.414;11.010;2023-08-21T09:31:32;26.60;99.90
54461;DHT22;69977;49.414;11.010;2023-08-21T09:34:00;26.70;99.90
54461;DHT22;69977;49.414;11.010;2023-08-21T09:36:27;26.80;99.90
54461;DHT22;69977;49.414;11.010;2023-08-21T09:38:53;26.70;99.90
54461;DHT22;69977;49.414;11.010;2023-08-21T09:41:20;26.70;99.90
54461;DHT22;69977;49.414;11.010;2023-08-21T09:43:46;26.80;99.90
54461;DHT22;69977;49.414;11.010;2023-08-21T09:46:16;26.80;99.90
54461;DHT22;69977;49.414;11.010;2023-08-21T09:48:44;27.10;99.90
54461;DHT22;69977;49.414;11.010;2023-08-21T09:51:11;27.00;99.90
54461;DHT22;69977;49.414;11.010;2023-08-21T09:53:37;27.10;99.90
54461;DHT22;69977;49.414;11.010;2023-08-21T09:56:03;27.30;99.90
54461;DHT22;69977;49.414;11.010;2023-08-21T09:58:30;27.30;99.90
54461;DHT22;69977;49.414;11.010;2023-08-21T10:00:59;27.30;99.90
54461;DHT22;69977;49.414;11.010;2023-08-21T10:03:26;27.40;99.90
54461;DHT22;69977;49.414;11.010;2023-08-21T10:05:55;27.40;99.90
54461;DHT22;69977;49.414;11.010;2023-08-21T10:08:24;27.50;99.90
54461;DHT22;69977;49.414;11.010;2023-08-21T10:10:51;27.50;99.90
54461;DHT22;69977;49.414;11.010;2023-08-21T10:13:17;27.60;99.90
54461;DHT22;69977;49.414;11.010;2023-08-21T10:15:44;27.70;99.90
54461;DHT22;69977;49.414;11.010;2023-08-21T10:18:35;27.70;99.90
54461;DHT22;69977;49.414;11.010;2023-08-21T10:21:18;27.80;99.90
54461;DHT22;69977;49.414;11.010;2023-08-21T10:23:49;27.80;99.90
54461;DHT22;69977;49.414;11.010;2023-08-21T10:26:15;27.80;99.90
54461;DHT22;69977;49.414;11.010;2023-08-21T10:29:01;28.00;99.90
54461;DHT22;69977;49.414;11.010;2023-08-21T10:31:39;28.00;99.90
54461;DHT22;69977;49.414;11.010;2023-08-21T10:34:07;28.00;99.90
54461;DHT22;69977;49.414;11.010;2023-08-21T10:39:25;28.00;99.90
54461;DHT22;69977;49.414;11.010;2023-08-21T10:49:56;28.70;99.90
54461;DHT22;69977;49.414;11.010;2023-08-21T10:52:39;28.90;99.90
54461;DHT22;69977;49.414;11.010;2023-08-21T10:55:08;29.10;99.90
54461;DHT22;69977;49.414;11.010;2023-08-21T10:57:35;29.20;99.90
54461;DHT22;69977;49.414;11.010;2023-08-21T11:00:12;29.30;99.90
54461;DHT22;69977;49.414;11.010;2023-08-21T11:02:40;29.60;99.90
54461;DHT22;69977;49.414;11.010;2023-08-21T11:05:07;30.30;99.90
54461;DHT22;69977;49.414;11.010;2023-08-21T11:07:38;30.50;99.90
54461;DHT22;69977;49.414;11.010;2023-08-21T11:10:08;30.50;99.90
54461;DHT22;69977;49.414;11.010;2023-08-21T11:12:35;30.40;99.90
54461;DHT22;69977;49.414;11.010;2023-08-21T11:15:03;30.20;99.90
54461;DHT22;69977;49.414;11.010;2023-08-21T11:17:28;30.10;99.90
54461;DHT22;69977;49.414;11.010;2023-08-21T11:19:55;30.00;99.90
54461;DHT22;69977;49.414;11.010;2023-08-21T11:22:21;29.80;99.90
54461;DHT22;69977;49.414;11.010;2023-08-21T11:24:53;29.60;99.90
54461;DHT22;69977;49.414;11.010;2023-08-21T11:27:19;29.60;99.90
54461;DHT22;69977;49.414;11.010;2023-08-21T11:29:49;29.90;99.90
54461;DHT22;69977;49.414;11.010;2023-08-21T11:32:21;30.30;99.90
54461;DHT22;69977;49.414;11.010;2023-08-21T11:34:49;30.20;99.90
54461;DHT22;69977;49.414;11.010;2023-08-21T11:37:20;30.20;99.90
54461;DHT22;69977;49.414;11.010;2023-08-21T11:39:51;30.30;99.90
54461;DHT22;69977;49.414;11.010;2023-08-21T11:42:19;30.10;99.90
54461;DHT22;69977;49.414;11.010;2023-08-21T11:44:47;30.20;99.90
54461;DHT22;69977;49.414;11.010;2023-08-21T11:47:15;30.20;99.90
54461;DHT22;69977;49.414;11.010;2023-08-21T11:49:43;30.50;99.90
54461;DHT22;69977;49.414;11.010;2023-08-21T11:52:10;31.00;99.90
54461;DHT22;69977;49.414;11.010;2023-08-21T11:54:38;31.30;99.90
54461;DHT22;69977;49.414;11.010;2023-08-21T11:57:12;31.50;99.90
54461;DHT22;69977;49.414;11.010;2023-08-21T11:59:39;31.50;99.90
54461;DHT22;69977;49.414;11.010;2023-08-21T12:02:14;31.70;99.90
54461;DHT22;69977;49.414;11.010;2023-08-21T12:04:41;31.80;99.90
54461;DHT22;69977;49.414;11.010;2023-08-21T12:07:07;31.70;99.90
54461;DHT22;69977;49.414;11.010;2023-08-21T12:09:33;31.90;99.90
54461;DHT22;69977;49.414;11.010;2023-08-21T12:11:59;32.10;99.90
54461;DHT22;69977;49.414;11.010;2023-08-21T12:14:27;32.50;99.90
54461;DHT22;69977;49.414;11.010;2023-08-21T12:16:53;32.80;99.90
54461;DHT22;69977;49.414;11.010;2023-08-21T12:19:22;32.90;99.90
54461;DHT22;69977;49.414;11.010;2023-08-21T12:21:48;33.20;99.90
54461;DHT22;69977;49.414;11.010;2023-08-21T12:24:14;33.80;99.90
54461;DHT22;69977;49.414;11.010;2023-08-21T12:26:40;34.10;99.90
54461;DHT22;69977;49.414;11.010;2023-08-21T12:29:06;33.80;99.90
54461;DHT22;69977;49.414;11.010;2023-08-21T12:31:32;34.00;99.90
54461;DHT22;69977;49.414;11.010;2023-08-21T12:33:57;34.40;99.90
54461;DHT22;69977;49.414;11.010;2023-08-21T12:36:23;34.50;99.90
54461;DHT22;69977;49.414;11.010;2023-08-21T12:38:49;35.60;99.90
54461;DHT22;69977;49.414;11.010;2023-08-21T12:41:15;34.40;99.90
54461;DHT22;69977;49.414;11.010;2023-08-21T12:43:41;34.30;99.90
54461;DHT22;69977;49.414;11.010;2023-08-21T12:46:07;34.60;99.90
54461;DHT22;69977;49.414;11.010;2023-08-21T12:48:33;34.60;99.90
54461;DHT22;69977;49.414;11.010;2023-08-21T12:50:59;34.90;99.90
54461;DHT22;69977;49.414;11.010;2023-08-21T12:55:52;34.70;99.90
54461;DHT22;69977;49.414;11.010;2023-08-21T12:58:18;34.90;99.90
54461;DHT22;69977;49.414;11.010;2023-08-21T13:00:44;35.00;99.90
54461;DHT22;69977;49.414;11.010;2023-08-21T13:03:10;34.60;99.90
54461;DHT22;69977;49.414;11.010;2023-08-21T13:05:36;34.20;99.90
54461;DHT22;69977;49.414;11.010;2023-08-21T13:08:02;34.60;99.90
54461;DHT22;69977;49.414;11.010;2023-08-21T13:10:28;34.80;99.90
54461;DHT22;69977;49.414;11.010;2023-08-21T13:12:53;34.90;99.90
54461;DHT22;69977;49.414;11.010;2023-08-21T13:15:19;34.70;99.90
54461;DHT22;69977;49.414;11.010;2023-08-21T13:17:45;34.90;99.90
54461;DHT22;69977;49.414;11.010;2023-08-21T13:20:11;34.80;99.90
54461;DHT22;69977;49.414;11.010;2023-08-21T13:25:18;34.80;99.90
54461;DHT22;69977;49.414;11.010;2023-08-21T13:27:45;35.00;99.90
54461;DHT22;69977;49.414;11.010;2023-08-21T13:30:12;35.10;99.90
54461;DHT22;69977;49.414;11.010;2023-08-21T13:32:38;35.10;99.90
54461;DHT22;69977;49.414;11.010;2023-08-21T13:35:04;34.90;99.90
54461;DHT22;69977;49.414;11.010;2023-08-21T13:37:38;35.10;99.90
54461;DHT22;69977;49.414;11.010;2023-08-21T13:40:05;35.00;99.90
54461;DHT22;69977;49.414;11.010;2023-08-21T13:42:38;34.80;99.90
54461;DHT22;69977;49.414;11.010;2023-08-21T13:45:16;35.20;99.90
54461;DHT22;69977;49.414;11.010;2023-08-21T13:47:44;35.10;99.90
54461;DHT22;69977;49.414;11.010;2023-08-21T13:50:13;35.20;99.90
54461;DHT22;69977;49.414;11.010;2023-08-21T13:52:40;35.30;99.90
54461;DHT22;69977;49.414;11.010;2023-08-21T13:55:07;35.10;99.90
54461;DHT22;69977;49.414;11.010;2023-08-21T13:57:34;35.10;99.90
54461;DHT22;69977;49.414;11.010;2023-08-21T14:00:00;35.20;99.90
54461;DHT22;69977;49.414;11.010;2023-08-21T14:02:26;34.40;99.90
54461;DHT22;69977;49.414;11.010;2023-08-21T14:04:51;33.40;99.90
54461;DHT22;69977;49.414;11.010;2023-08-21T14:07:17;33.60;99.90
54461;DHT22;69977;49.414;11.010;2023-08-21T14:09:43;33.90;99.90
54461;DHT22;69977;49.414;11.010;2023-08-21T14:12:09;34.20;99.90
54461;DHT22;69977;49.414;11.010;2023-08-21T14:14:35;34.50;99.90
54461;DHT22;69977;49.414;11.010;2023-08-21T14:17:02;34.50;99.90
54461;DHT22;69977;49.414;11.010;2023-08-21T14:19:29;34.60;99.90
54461;DHT22;69977;49.414;11.010;2023-08-21T14:21:57;34.50;99.90
54461;DHT22;69977;49.414;11.010;2023-08-21T14:24:23;34.40;99.90
54461;DHT22;69977;49.414;11.010;2023-08-21T14:26:48;34.40;99.90
54461;DHT22;69977;49.414;11.010;2023-08-21T14:29:14;34.30;99.90
54461;DHT22;69977;49.414;11.010;2023-08-21T14:31:40;34.30;99.90
54461;DHT22;69977;49.414;11.010;2023-08-21T14:34:06;34.60;99.90
54461;DHT22;69977;49.414;11.010;2023-08-21T14:36:32;34.80;99.90
54461;DHT22;69977;49.414;11.010;2023-08-21T14:38:58;34.60;99.90
54461;DHT22;69977;49.414;11.010;2023-08-21T14:41:24;34.30;99.90
54461;DHT22;69977;49.414;11.010;2023-08-21T14:43:50;34.20;99.90
54461;DHT22;69977;49.414;11.010;2023-08-21T14:46:16;34.60;99.90
54461;DHT22;69977;49.414;11.010;2023-08-21T14:48:42;33.70;99.90
54461;DHT22;69977;49.414;11.010;2023-08-21T14:51:08;34.30;99.90
54461;DHT22;69977;49.414;11.010;2023-08-21T14:53:33;34.50;99.90
54461;DHT22;69977;49.414;11.010;2023-08-21T14:55:59;34.50;99.90
54461;DHT22;69977;49.414;11.010;2023-08-21T14:58:25;34.40;99.90
54461;DHT22;69977;49.414;11.010;2023-08-21T15:00:54;34.00;99.90
54461;DHT22;69977;49.414;11.010;2023-08-21T15:03:20;33.60;99.90
54461;DHT22;69977;49.414;11.010;2023-08-21T15:05:47;33.40;99.90
54461;DHT22;69977;49.414;11.010;2023-08-21T15:08:13;33.10;99.90
54461;DHT22;69977;49.414;11.010;2023-08-21T15:10:39;32.70;99.90
54461;DHT22;69977;49.414;11.010;2023-08-21T15:13:05;32.50;99.90
54461;DHT22;69977;49.414;11.010;2023-08-21T15:15:30;32.30;99.90
54461;DHT22;69977;49.414;11.010;2023-08-21T15:17:56;32.20;99.90
54461;DHT22;69977;49.414;11.010;2023-08-21T15:20:22;32.60;99.90
54461;DHT22;69977;49.414;11.010;2023-08-21T15:22:48;33.00;99.90
54461;DHT22;69977;49.414;11.010;2023-08-21T15:25:16;33.20;99.90
54461;DHT22;69977;49.414;11.010;2023-08-21T15:27:42;33.30;99.90
54461;DHT22;69977;49.414;11.010;2023-08-21T15:30:08;33.40;99.90
54461;DHT22;69977;49.414;11.010;2023-08-21T15:32:35;33.50;99.90
54461;DHT22;69977;49.414;11.010;2023-08-21T15:35:01;33.60;99.90
54461;DHT22;69977;49.414;11.010;2023-08-21T15:37:27;33.50;99.90